createdAt,value
2019-01-21T00:00:44.073Z,21.80
2019-01-21T00:01:44.075Z,21.20
2019-01-21T00:02:44.036Z,21.40
2019-01-21T00:03:44.027Z,21.90
2019-01-21T00:04:44.010Z,21.10
2019-01-21T00:05:43.996Z,21.40
2019-01-21T00:06:43.986Z,21.90
2019-01-21T00:07:43.996Z,20.50
2019-01-21T00:08:43.983Z,21.10
2019-01-21T00:09:43.990Z,20.70
2019-01-21T00:10:43.948Z,20.40
2019-01-21T00:11:43.948Z,21.30
2019-01-21T00:12:43.996Z,21.50
2019-01-21T00:13:43.919Z,21.40
2019-01-21T00:14:43.913Z,21.30
2019-01-21T00:15:43.928Z,21.10
2019-01-21T00:16:43.893Z,22.40
2019-01-21T00:17:43.888Z,21.50
2019-01-21T00:18:43.866Z,21.40
2019-01-21T00:19:43.850Z,20.10
2019-01-21T00:20:43.849Z,22.20
2019-01-21T00:21:43.843Z,21.50
2019-01-21T00:22:43.840Z,22.10
2019-01-21T00:23:43.828Z,21.10
2019-01-21T00:24:43.807Z,21.20
2019-01-21T00:25:43.800Z,21.60
2019-01-21T00:26:43.841Z,21.10
2019-01-21T00:27:43.801Z,20.70
2019-01-21T00:28:43.761Z,21.30
2019-01-21T00:29:43.745Z,20.50
2019-01-21T00:30:43.753Z,21.90
2019-01-21T00:31:43.747Z,20.60
2019-01-21T00:32:43.746Z,20.60
2019-01-21T00:33:43.717Z,20.80
2019-01-21T00:34:43.704Z,20.90
2019-01-21T00:35:43.690Z,21.10
2019-01-21T00:36:43.681Z,20.40
2019-01-21T00:37:43.694Z,21.20
2019-01-21T00:38:43.669Z,20.90
2019-01-21T00:39:43.646Z,20.90
2019-01-21T00:40:43.642Z,21.00
2019-01-21T00:41:43.624Z,21.20
2019-01-21T00:42:43.636Z,21.00
2019-01-21T00:43:43.613Z,21.60
2019-01-21T00:44:43.612Z,21.70
2019-01-21T00:45:43.588Z,21.90
2019-01-21T00:46:43.567Z,20.80
2019-01-21T00:47:43.588Z,21.40
2019-01-21T00:48:43.562Z,21.10
2019-01-21T00:49:43.536Z,22.00
2019-01-21T00:50:43.530Z,20.90
2019-01-21T00:51:43.514Z,20.80
2019-01-21T00:52:43.533Z,20.50
2019-01-21T00:53:43.527Z,21.10
2019-01-21T00:54:43.488Z,20.80
2019-01-21T00:55:43.484Z,21.10
2019-01-21T00:56:43.464Z,21.20
2019-01-21T00:57:43.485Z,21.00
2019-01-21T00:58:43.451Z,21.80
2019-01-21T00:59:43.446Z,21.80
2019-01-21T01:00:43.422Z,20.90
2019-01-21T01:01:43.426Z,20.60
2019-01-21T01:02:43.418Z,21.00
2019-01-21T01:03:43.393Z,20.50
2019-01-21T01:04:43.395Z,21.70
2019-01-21T01:05:43.371Z,22.00
2019-01-21T01:06:43.359Z,21.60
2019-01-21T01:07:43.370Z,21.30
2019-01-21T01:08:43.367Z,21.70
2019-01-21T01:09:43.337Z,20.90
2019-01-21T01:10:43.323Z,22.00
2019-01-21T01:11:43.318Z,21.80
2019-01-21T01:12:43.328Z,21.70
2019-01-21T01:13:43.307Z,20.90
2019-01-21T01:14:43.278Z,21.60
2019-01-21T01:15:43.278Z,20.90
2019-01-21T01:17:52.536Z,20.00
2019-01-21T01:18:53.480Z,21.40
2019-01-21T01:19:53.466Z,21.50
2019-01-21T01:20:53.467Z,22.50
2019-01-21T01:21:53.457Z,21.10
2019-01-21T01:22:53.475Z,21.80
2019-01-21T01:23:53.432Z,22.10
2019-01-21T01:24:53.419Z,22.00
2019-01-21T01:25:53.408Z,22.40
2019-01-21T01:26:53.429Z,22.00
2019-01-21T01:27:53.384Z,23.60
2019-01-21T01:28:53.385Z,22.10
2019-01-21T01:29:53.359Z,22.50
2019-01-21T01:30:53.349Z,23.80
2019-01-21T01:31:53.349Z,23.30
2019-01-21T01:32:53.357Z,24.20
2019-01-21T01:33:53.328Z,23.20
2019-01-21T01:34:53.321Z,24.00
2019-01-21T01:35:53.305Z,23.80
2019-01-21T01:36:53.300Z,23.30
2019-01-21T01:37:53.297Z,22.40
2019-01-21T01:38:53.279Z,23.00
2019-01-21T01:39:53.271Z,23.00
2019-01-21T01:40:53.253Z,25.10
2019-01-21T01:41:53.238Z,24.00
2019-01-21T01:42:53.247Z,23.50
2019-01-21T01:43:53.224Z,24.20
2019-01-21T01:44:53.334Z,23.90
2019-01-21T01:45:53.202Z,24.90
2019-01-21T01:46:53.188Z,23.30
2019-01-21T01:47:53.192Z,24.00
2019-01-21T01:48:53.171Z,24.80
2019-01-21T01:49:53.157Z,25.20
2019-01-21T01:50:53.706Z,23.90
2019-01-21T01:51:53.140Z,24.60
2019-01-21T01:52:53.135Z,25.50
2019-01-21T01:53:53.133Z,24.80
2019-01-21T01:54:53.135Z,24.80
2019-01-21T01:55:53.102Z,24.60
2019-01-21T01:56:53.095Z,24.30
2019-01-21T01:57:53.099Z,24.30
2019-01-21T01:58:53.061Z,24.90
2019-01-21T01:59:53.056Z,25.70
2019-01-21T02:00:53.046Z,25.20
2019-01-21T02:01:53.041Z,26.40
2019-01-21T02:02:53.030Z,25.40
2019-01-21T02:03:53.028Z,25.10
2019-01-21T02:04:53.026Z,27.50
2019-01-21T02:05:52.997Z,25.50
2019-01-21T02:06:52.998Z,25.80
2019-01-21T02:07:52.970Z,27.10
2019-01-21T02:08:52.983Z,26.20
2019-01-21T02:09:52.960Z,26.40
2019-01-21T02:10:52.943Z,26.70
2019-01-21T02:11:52.933Z,25.60
2019-01-21T02:12:52.920Z,26.60
2019-01-21T02:13:52.934Z,26.40
2019-01-21T02:14:52.899Z,27.50
2019-01-21T02:15:52.894Z,26.20
2019-01-21T02:16:52.884Z,26.80
2019-01-21T02:17:52.869Z,27.70
2019-01-21T02:18:52.882Z,25.90
2019-01-21T02:19:52.860Z,27.60
2019-01-21T02:20:52.832Z,27.50
2019-01-21T02:21:52.830Z,27.60
2019-01-21T02:22:52.812Z,27.30
2019-01-21T02:23:52.829Z,27.40
2019-01-21T02:24:52.806Z,27.90
2019-01-21T02:25:52.794Z,27.90
2019-01-21T02:26:52.779Z,28.20
2019-01-21T02:27:52.772Z,27.30
2019-01-21T02:28:52.773Z,27.60
2019-01-21T02:29:52.749Z,28.70
2019-01-21T02:30:52.741Z,28.60
2019-01-21T02:31:52.733Z,28.40
2019-01-21T02:32:52.724Z,27.70
2019-01-21T02:33:52.716Z,27.50
2019-01-21T02:34:52.714Z,28.70
2019-01-21T02:35:52.683Z,27.90
2019-01-21T02:36:52.699Z,28.80
2019-01-21T02:37:52.674Z,28.40
2019-01-21T02:38:52.673Z,28.80
2019-01-21T02:39:52.641Z,29.20
2019-01-21T02:40:52.623Z,28.80
2019-01-21T02:41:52.648Z,28.70
2019-01-21T02:42:52.681Z,29.20
2019-01-21T02:43:52.611Z,29.10
2019-01-21T02:44:52.600Z,28.60
2019-01-21T02:45:52.589Z,28.40
2019-01-21T02:46:52.571Z,29.80
2019-01-21T02:47:59.863Z,29.70
2019-01-21T02:48:52.568Z,29.80
2019-01-21T02:49:52.545Z,29.70
2019-01-21T02:50:52.526Z,28.90
2019-01-21T02:51:52.526Z,29.90
2019-01-21T02:52:52.508Z,29.50
2019-01-21T02:53:52.523Z,30.10
2019-01-21T02:54:52.498Z,29.90
2019-01-21T02:55:52.472Z,30.20
2019-01-21T02:56:52.463Z,29.40
2019-01-21T02:57:52.449Z,30.90
2019-01-21T02:58:52.469Z,29.40
2019-01-21T02:59:52.446Z,29.80
2019-01-21T03:00:52.421Z,29.40
2019-01-21T03:01:52.419Z,29.20
2019-01-21T03:02:52.401Z,29.30
2019-01-21T03:03:52.410Z,30.40
2019-01-21T03:04:52.412Z,29.10
2019-01-21T03:05:52.369Z,29.70
2019-01-21T03:06:52.371Z,31.00
2019-01-21T03:07:52.356Z,29.80
2019-01-21T03:08:52.354Z,31.10
2019-01-21T03:09:52.332Z,29.30
2019-01-21T03:10:52.316Z,29.10
2019-01-21T03:11:52.312Z,31.30
2019-01-21T03:12:52.309Z,29.70
2019-01-21T03:13:52.311Z,32.30
2019-01-21T03:14:52.287Z,31.40
2019-01-21T03:15:52.267Z,30.50
2019-01-21T03:16:52.252Z,31.70
2019-01-21T03:19:01.473Z,30.00
2019-01-21T03:20:02.446Z,31.40
2019-01-21T03:21:02.435Z,31.00
2019-01-21T03:22:02.416Z,31.00
2019-01-21T03:23:02.400Z,29.70
2019-01-21T03:24:02.428Z,31.00
2019-01-21T03:25:02.379Z,31.70
2019-01-21T03:26:02.383Z,30.90
2019-01-21T03:27:02.363Z,32.20
2019-01-21T03:28:02.364Z,31.10
2019-01-21T03:29:02.359Z,30.50
2019-01-21T03:30:02.342Z,31.80
2019-01-21T03:31:02.329Z,31.20
2019-01-21T03:32:02.331Z,29.90
2019-01-21T03:33:02.454Z,32.40
2019-01-21T03:34:02.321Z,31.80
2019-01-21T03:35:02.283Z,31.00
2019-01-21T03:36:02.309Z,31.90
2019-01-21T03:37:02.270Z,31.10
2019-01-21T03:38:02.382Z,31.70
2019-01-21T03:39:02.257Z,31.10
2019-01-21T03:40:02.243Z,31.30
2019-01-21T03:41:02.230Z,31.90
2019-01-21T03:42:02.213Z,31.90
2019-01-21T03:43:02.203Z,32.50
2019-01-21T03:44:02.206Z,32.00
2019-01-21T03:45:02.188Z,31.50
2019-01-21T03:46:02.174Z,31.00
2019-01-21T03:47:02.159Z,32.00
2019-01-21T03:48:02.159Z,31.30
2019-01-21T03:49:02.159Z,32.50
2019-01-21T03:50:02.126Z,31.50
2019-01-21T03:51:02.120Z,30.80
2019-01-21T03:52:02.114Z,30.00
2019-01-21T03:53:02.101Z,32.20
2019-01-21T03:54:02.112Z,32.50
2019-01-21T03:55:02.085Z,32.50
2019-01-21T03:56:02.065Z,32.10
2019-01-21T03:57:02.057Z,31.60
2019-01-21T03:58:02.040Z,30.30
2019-01-21T03:59:02.038Z,31.70
2019-01-21T04:00:02.106Z,33.70
2019-01-21T04:01:02.017Z,33.70
2019-01-21T04:02:01.999Z,31.60
2019-01-21T04:03:02.001Z,31.80
2019-01-21T04:04:01.978Z,32.00
2019-01-21T04:05:01.990Z,31.90
2019-01-21T04:06:01.962Z,31.00
2019-01-21T04:07:01.965Z,32.40
2019-01-21T04:08:01.945Z,32.10
2019-01-21T04:09:01.929Z,31.10
2019-01-21T04:10:01.938Z,30.90
2019-01-21T04:11:01.921Z,32.90
2019-01-21T04:12:01.895Z,33.30
2019-01-21T04:13:01.898Z,32.60
2019-01-21T04:14:01.888Z,33.30
2019-01-21T04:15:01.889Z,31.80
2019-01-21T04:16:01.860Z,32.50
2019-01-21T04:17:01.856Z,32.40
2019-01-21T04:18:01.839Z,32.10
2019-01-21T04:19:01.820Z,30.90
2019-01-21T04:20:01.854Z,31.20
2019-01-21T04:21:01.819Z,33.50
2019-01-21T04:22:01.802Z,32.70
2019-01-21T04:23:01.783Z,33.30
2019-01-21T04:24:01.777Z,32.00
2019-01-21T04:25:01.799Z,32.60
2019-01-21T04:26:01.763Z,33.90
2019-01-21T04:27:01.734Z,34.00
2019-01-21T04:28:01.745Z,32.30
2019-01-21T04:29:01.714Z,31.80
2019-01-21T04:30:01.769Z,31.20
2019-01-21T04:31:01.709Z,33.30
2019-01-21T04:32:01.682Z,32.20
2019-01-21T04:33:01.680Z,33.10
2019-01-21T04:34:01.663Z,34.10
2019-01-21T04:35:01.689Z,33.00
2019-01-21T04:36:01.650Z,33.20
2019-01-21T04:37:01.647Z,32.70
2019-01-21T04:38:01.621Z,33.00
2019-01-21T04:39:01.623Z,32.50
2019-01-21T04:40:01.704Z,34.00
2019-01-21T04:41:01.592Z,33.30
2019-01-21T04:42:01.590Z,35.00
2019-01-21T04:43:01.577Z,32.90
2019-01-21T04:44:01.559Z,33.10
2019-01-21T04:45:01.581Z,32.50
2019-01-21T04:46:01.540Z,33.90
2019-01-21T04:47:01.524Z,32.40
2019-01-21T04:48:01.518Z,33.10
2019-01-21T04:49:01.509Z,34.10
2019-01-21T04:50:01.525Z,32.60
2019-01-21T04:51:01.502Z,32.60
2019-01-21T04:52:01.480Z,32.30
2019-01-21T04:53:01.473Z,33.80
2019-01-21T04:54:01.462Z,33.00
2019-01-21T04:55:01.487Z,34.30
2019-01-21T04:56:01.443Z,32.50
2019-01-21T04:57:01.436Z,32.60
2019-01-21T04:58:01.416Z,32.20
2019-01-21T04:59:01.420Z,34.10
2019-01-21T05:00:01.427Z,36.60
2019-01-21T05:01:01.395Z,35.60
2019-01-21T05:02:01.389Z,34.10
2019-01-21T05:03:01.374Z,33.10
2019-01-21T05:04:01.359Z,34.70
2019-01-21T05:05:01.356Z,32.60
2019-01-21T05:06:01.339Z,34.30
2019-01-21T05:07:02.183Z,34.20
2019-01-21T05:08:01.346Z,35.50
2019-01-21T05:09:01.304Z,35.10
2019-01-21T05:10:01.309Z,36.50
2019-01-21T05:11:01.291Z,36.10
2019-01-21T05:12:01.279Z,36.60
2019-01-21T05:13:01.274Z,35.70
2019-01-21T05:14:01.257Z,35.50
2019-01-21T05:15:01.264Z,34.90
2019-01-21T05:16:01.236Z,35.50
2019-01-21T05:17:01.221Z,34.80
2019-01-21T05:18:01.221Z,35.70
2019-01-21T05:20:10.428Z,31.30
2019-01-21T05:21:11.394Z,34.90
2019-01-21T05:22:11.373Z,33.30
2019-01-21T05:23:11.375Z,33.00
2019-01-21T05:24:11.385Z,33.40
2019-01-21T05:25:11.371Z,33.90
2019-01-21T05:26:11.340Z,34.40
2019-01-21T05:27:11.323Z,34.00
2019-01-21T05:28:11.315Z,32.20
2019-01-21T05:29:11.309Z,33.40
2019-01-21T05:30:11.311Z,34.00
2019-01-21T05:31:11.290Z,33.50
2019-01-21T05:32:11.281Z,34.00
2019-01-21T05:33:11.272Z,33.90
2019-01-21T05:34:11.262Z,33.70
2019-01-21T05:35:11.268Z,34.60
2019-01-21T05:36:11.244Z,34.40
2019-01-21T05:37:11.226Z,34.10
2019-01-21T05:38:11.206Z,34.40
2019-01-21T05:39:11.251Z,34.20
2019-01-21T05:40:11.236Z,33.60
2019-01-21T05:41:11.187Z,33.20
2019-01-21T05:42:11.182Z,33.60
2019-01-21T05:43:11.169Z,34.00
2019-01-21T05:44:11.151Z,34.10
2019-01-21T05:45:11.170Z,33.10
2019-01-21T05:46:11.139Z,34.70
2019-01-21T05:47:11.126Z,34.10
2019-01-21T05:48:11.102Z,34.30
2019-01-21T05:49:11.105Z,34.10
2019-01-21T05:50:11.112Z,33.50
2019-01-21T05:51:11.072Z,32.30
2019-01-21T05:52:11.080Z,33.80
2019-01-21T05:53:11.058Z,33.80
2019-01-21T05:54:11.050Z,33.10
2019-01-21T05:55:11.057Z,34.60
2019-01-21T05:56:11.042Z,33.90
2019-01-21T05:57:11.006Z,33.30
2019-01-21T05:58:11.009Z,34.70
2019-01-21T05:59:10.997Z,34.60
2019-01-21T06:00:10.987Z,33.90
2019-01-21T06:01:10.980Z,34.80
2019-01-21T06:02:10.961Z,33.10
2019-01-21T06:03:10.967Z,34.00
2019-01-21T06:04:10.933Z,34.30
2019-01-21T06:05:10.929Z,33.80
2019-01-21T06:06:10.944Z,34.20
2019-01-21T06:07:10.902Z,35.20
2019-01-21T06:08:10.896Z,34.20
2019-01-21T06:09:10.881Z,34.60
2019-01-21T06:10:10.874Z,34.50
2019-01-21T06:11:10.880Z,33.00
2019-01-21T06:12:10.874Z,35.00
2019-01-21T06:13:10.844Z,34.80
2019-01-21T06:14:10.828Z,35.00
2019-01-21T06:15:10.820Z,35.00
2019-01-21T06:16:10.820Z,35.00
2019-01-21T06:17:10.828Z,34.90
2019-01-21T06:18:10.804Z,34.50
2019-01-21T06:19:10.791Z,35.00
2019-01-21T06:20:10.773Z,34.50
2019-01-21T06:21:10.776Z,33.90
2019-01-21T06:22:10.775Z,34.10
2019-01-21T06:23:10.754Z,34.70
2019-01-21T06:24:10.730Z,33.60
2019-01-21T06:25:10.716Z,35.00
2019-01-21T06:26:10.978Z,35.60
2019-01-21T06:27:10.721Z,35.10
2019-01-21T06:28:10.693Z,34.10
2019-01-21T06:29:10.688Z,33.30
2019-01-21T06:30:10.667Z,34.10
2019-01-21T06:31:10.708Z,34.70
2019-01-21T06:32:10.663Z,35.50
2019-01-21T06:33:10.633Z,35.50
2019-01-21T06:34:10.633Z,35.60
2019-01-21T06:35:10.621Z,34.70
2019-01-21T06:36:10.607Z,35.80
2019-01-21T06:37:10.619Z,35.90
2019-01-21T06:38:10.585Z,34.10
2019-01-21T06:39:10.584Z,35.00
2019-01-21T06:40:10.565Z,35.80
2019-01-21T06:41:10.550Z,34.60
2019-01-21T06:42:10.555Z,35.60
2019-01-21T06:43:10.542Z,34.40
2019-01-21T06:44:10.525Z,36.40
2019-01-21T06:45:10.520Z,35.30
2019-01-21T06:46:10.528Z,34.80
2019-01-21T06:47:10.557Z,35.90
2019-01-21T06:48:10.505Z,35.90
2019-01-21T06:49:10.476Z,34.70
2019-01-21T06:50:10.461Z,35.30
2019-01-21T06:51:10.479Z,35.90
2019-01-21T06:52:10.465Z,35.50
2019-01-21T06:53:10.436Z,35.50
2019-01-21T06:54:11.143Z,36.90
2019-01-21T06:55:10.437Z,36.00
2019-01-21T06:56:10.404Z,35.80
2019-01-21T06:57:10.403Z,35.50
2019-01-21T06:58:10.389Z,35.50
2019-01-21T06:59:10.366Z,36.30
2019-01-21T07:00:10.363Z,34.80
2019-01-21T07:01:10.347Z,34.70
2019-01-21T07:02:10.376Z,35.40
2019-01-21T07:03:10.327Z,35.40
2019-01-21T07:04:10.325Z,34.30
2019-01-21T07:05:10.318Z,35.40
2019-01-21T07:06:10.312Z,36.70
2019-01-21T07:07:10.309Z,35.20
2019-01-21T07:08:10.310Z,35.60
2019-01-21T07:09:10.259Z,36.00
2019-01-21T07:10:10.258Z,35.40
2019-01-21T07:11:10.262Z,36.10
2019-01-21T07:12:10.470Z,36.00
2019-01-21T07:13:10.247Z,35.80
2019-01-21T07:14:10.210Z,35.20
2019-01-21T07:15:10.227Z,36.10
2019-01-21T07:16:10.198Z,36.70
2019-01-21T07:17:10.211Z,35.90
2019-01-21T07:18:10.182Z,35.90
2019-01-21T07:19:11.117Z,36.10
2019-01-21T07:21:19.363Z,32.30
2019-01-21T07:22:20.401Z,34.30
2019-01-21T07:23:20.380Z,36.20
2019-01-21T07:24:20.328Z,35.90
2019-01-21T07:25:21.318Z,35.40
2019-01-21T07:26:20.304Z,36.00
2019-01-21T07:27:20.506Z,34.80
2019-01-21T07:28:20.475Z,35.20
2019-01-21T07:29:20.270Z,36.00
2019-01-21T07:30:20.300Z,35.40
2019-01-21T07:31:20.252Z,35.60
2019-01-21T07:32:20.248Z,35.90
2019-01-21T07:33:20.254Z,36.20
2019-01-21T07:34:20.223Z,36.90
2019-01-21T07:35:20.229Z,34.50
2019-01-21T07:36:20.202Z,35.00
2019-01-21T07:37:20.323Z,35.90
2019-01-21T07:38:20.193Z,35.00
2019-01-21T07:39:20.166Z,35.70
2019-01-21T07:40:20.285Z,34.90
2019-01-21T07:41:20.145Z,35.50
2019-01-21T07:42:20.147Z,35.30
2019-01-21T07:43:20.133Z,36.50
2019-01-21T07:44:20.143Z,34.30
2019-01-21T07:45:20.105Z,36.40
2019-01-21T07:46:20.102Z,35.70
2019-01-21T07:47:20.104Z,36.70
2019-01-21T07:48:20.071Z,35.50
2019-01-21T07:49:20.056Z,36.80
2019-01-21T07:50:20.069Z,35.40
2019-01-21T07:51:20.040Z,35.30
2019-01-21T07:52:20.068Z,35.80
2019-01-21T07:53:20.029Z,36.00
2019-01-21T07:54:20.017Z,34.80
2019-01-21T07:55:20.008Z,36.50
2019-01-21T07:56:19.995Z,34.90
2019-01-21T07:57:19.987Z,35.10
2019-01-21T07:58:20.040Z,35.40
2019-01-21T07:59:19.961Z,37.30
2019-01-21T08:00:19.940Z,35.90
2019-01-21T08:01:19.940Z,35.40
2019-01-21T08:02:19.940Z,34.90
2019-01-21T08:03:19.986Z,35.70
2019-01-21T08:04:19.908Z,34.50
2019-01-21T08:05:19.909Z,35.70
2019-01-21T08:06:19.890Z,35.30
2019-01-21T08:07:19.871Z,36.50
2019-01-21T08:08:19.887Z,35.90
2019-01-21T08:09:20.002Z,35.70
2019-01-21T08:10:19.852Z,37.00
2019-01-21T08:11:19.876Z,35.70
2019-01-21T08:12:19.830Z,36.80
2019-01-21T08:13:19.829Z,36.20
2019-01-21T08:14:19.805Z,35.50
2019-01-21T08:15:19.810Z,35.10
2019-01-21T08:16:19.777Z,36.40
2019-01-21T08:17:19.859Z,35.90
2019-01-21T08:18:19.777Z,36.10
2019-01-21T08:19:24.281Z,35.50
2019-01-21T08:20:19.751Z,36.60
2019-01-21T08:21:19.739Z,36.00
2019-01-21T08:22:19.746Z,36.40
2019-01-21T08:23:19.723Z,36.50
2019-01-21T08:24:19.696Z,36.90
2019-01-21T08:25:19.776Z,35.80
2019-01-21T08:26:19.831Z,34.90
2019-01-21T08:27:19.746Z,35.10
2019-01-21T08:28:19.679Z,35.70
2019-01-21T08:29:19.682Z,33.80
2019-01-21T08:30:19.634Z,36.00
2019-01-21T08:31:19.650Z,36.90
2019-01-21T08:32:19.620Z,36.00
2019-01-21T08:33:19.637Z,36.50
2019-01-21T08:34:19.597Z,36.10
2019-01-21T08:35:19.585Z,34.40
2019-01-21T08:36:19.588Z,34.40
2019-01-21T08:37:19.702Z,39.60
2019-01-21T08:38:19.644Z,36.80
2019-01-21T08:39:19.543Z,37.20
2019-01-21T08:40:19.553Z,37.10
2019-01-21T08:41:19.586Z,38.20
2019-01-21T08:42:19.527Z,37.90
2019-01-21T08:43:19.537Z,37.90
2019-01-21T08:44:19.533Z,39.00
2019-01-21T08:45:19.632Z,38.80
2019-01-21T08:46:21.421Z,37.30
2019-01-21T08:47:19.470Z,38.60
2019-01-21T08:48:19.489Z,38.80
2019-01-21T08:49:19.461Z,37.50
2019-01-21T08:50:19.453Z,36.50
2019-01-21T08:51:19.421Z,37.70
2019-01-21T08:52:19.417Z,37.70
2019-01-21T08:53:19.417Z,35.70
2019-01-21T08:54:19.401Z,35.40
2019-01-21T08:55:19.385Z,36.00
2019-01-21T08:56:19.503Z,33.40
2019-01-21T08:57:19.350Z,33.90
2019-01-21T08:58:19.374Z,33.00
2019-01-21T08:59:19.370Z,34.30
2019-01-21T09:00:19.337Z,34.30
2019-01-21T09:01:19.321Z,33.40
2019-01-21T09:02:19.314Z,33.00
2019-01-21T09:03:19.380Z,32.60
2019-01-21T09:04:19.376Z,34.90
2019-01-21T09:05:19.271Z,33.20
2019-01-21T09:06:19.268Z,34.00
2019-01-21T09:07:19.261Z,33.50
2019-01-21T09:08:19.256Z,32.50
2019-01-21T09:09:19.251Z,33.20
2019-01-21T09:10:19.233Z,32.30
2019-01-21T09:11:19.231Z,31.50
2019-01-21T09:12:19.199Z,33.10
2019-01-21T09:13:19.200Z,33.40
2019-01-21T09:14:19.205Z,34.20
2019-01-21T09:15:19.174Z,33.00
2019-01-21T09:16:19.178Z,33.90
2019-01-21T09:17:19.175Z,32.60
2019-01-21T09:18:19.185Z,33.90
2019-01-21T09:19:19.132Z,33.10
2019-01-21T09:20:19.136Z,32.60
2019-01-21T09:22:28.315Z,29.20
2019-01-21T09:23:29.340Z,30.40
2019-01-21T09:24:29.299Z,30.90
2019-01-21T09:25:29.288Z,30.70
2019-01-21T09:26:29.272Z,30.60
2019-01-21T09:27:29.273Z,30.10
2019-01-21T09:28:29.299Z,28.60
2019-01-21T09:29:29.241Z,28.40
2019-01-21T09:30:29.245Z,28.80
2019-01-21T09:31:29.234Z,29.00
2019-01-21T09:32:29.208Z,27.90
2019-01-21T09:33:29.220Z,28.10
2019-01-21T09:34:29.220Z,27.00
2019-01-21T09:35:29.194Z,26.80
2019-01-21T09:36:29.267Z,27.30
2019-01-21T09:37:29.159Z,27.00
2019-01-21T09:38:29.168Z,25.90
2019-01-21T09:39:29.159Z,26.80
2019-01-21T09:40:29.130Z,27.20
2019-01-21T09:41:29.147Z,28.70
2019-01-21T09:42:29.142Z,27.20
2019-01-21T09:43:29.118Z,28.30
2019-01-21T09:44:29.114Z,28.20
2019-01-21T09:45:29.083Z,27.50
2019-01-21T09:46:29.086Z,26.60
2019-01-21T09:47:29.103Z,24.30
2019-01-21T09:48:29.066Z,25.00
2019-01-21T09:49:29.073Z,23.00
2019-01-21T09:50:29.038Z,21.70
2019-01-21T09:51:29.030Z,19.20
2019-01-21T09:52:29.103Z,21.00
2019-01-21T09:53:29.013Z,20.40
2019-01-21T09:54:28.994Z,19.90
2019-01-21T09:55:29.009Z,18.70
2019-01-21T09:56:28.974Z,20.10
2019-01-21T09:57:28.975Z,18.00
2019-01-21T09:58:28.955Z,19.10
2019-01-21T09:59:28.962Z,19.00
2019-01-21T10:00:28.951Z,18.90
2019-01-21T10:01:28.921Z,18.90
2019-01-21T10:02:28.912Z,19.50
2019-01-21T10:03:28.943Z,19.00
2019-01-21T10:04:28.923Z,18.90
2019-01-21T10:05:29.031Z,19.30
2019-01-21T10:06:28.900Z,20.10
2019-01-21T10:07:28.861Z,19.40
2019-01-21T10:08:28.861Z,19.20
2019-01-21T10:09:28.861Z,20.10
2019-01-21T10:10:28.871Z,20.10
2019-01-21T10:11:28.823Z,19.20
2019-01-21T10:12:28.818Z,17.80
2019-01-21T10:13:28.801Z,17.40
2019-01-21T10:14:28.832Z,17.30
2019-01-21T10:15:30.063Z,18.20
2019-01-21T10:16:28.777Z,17.20
2019-01-21T10:17:28.768Z,17.50
2019-01-21T10:18:28.759Z,18.40
2019-01-21T10:19:28.770Z,17.20
2019-01-21T10:20:28.752Z,17.60
2019-01-21T10:21:28.760Z,16.90
2019-01-21T10:22:28.713Z,16.40
2019-01-21T10:23:28.717Z,16.90
2019-01-21T10:24:28.730Z,16.80
2019-01-21T10:25:29.163Z,15.90
2019-01-21T10:26:28.722Z,16.20
2019-01-21T10:27:28.659Z,16.70
2019-01-21T10:28:28.754Z,17.30
2019-01-21T10:29:29.582Z,15.50
2019-01-21T10:30:28.797Z,15.60
2019-01-21T10:31:28.690Z,17.10
2019-01-21T10:32:28.642Z,17.20
2019-01-21T10:33:28.653Z,17.00
2019-01-21T10:34:28.596Z,18.40
2019-01-21T10:35:28.711Z,18.40
2019-01-21T10:36:28.667Z,18.10
2019-01-21T10:37:28.552Z,17.80
2019-01-21T10:38:28.560Z,18.10
2019-01-21T10:39:28.611Z,18.40
2019-01-21T10:40:28.532Z,18.30
2019-01-21T10:41:28.518Z,18.50
2019-01-21T10:42:28.516Z,18.20
2019-01-21T10:43:28.498Z,18.70
2019-01-21T10:44:28.481Z,19.00
2019-01-21T10:45:28.934Z,19.30
2019-01-21T10:46:28.487Z,19.80
2019-01-21T10:47:29.101Z,19.60
2019-01-21T10:48:28.595Z,19.60
2019-01-21T10:49:29.491Z,19.70
2019-01-21T10:50:28.630Z,19.50
2019-01-21T10:51:28.468Z,19.60
2019-01-21T10:52:28.474Z,19.80
2019-01-21T10:53:28.391Z,19.10
2019-01-21T10:54:28.385Z,19.30
2019-01-21T10:55:28.440Z,20.10
2019-01-21T10:56:28.367Z,19.90
2019-01-21T10:57:28.394Z,19.90
2019-01-21T10:58:28.350Z,19.90
2019-01-21T10:59:28.336Z,19.60
2019-01-21T11:00:28.395Z,19.70
2019-01-21T11:01:28.308Z,19.30
2019-01-21T11:02:28.312Z,19.40
2019-01-21T11:03:28.286Z,18.80
2019-01-21T11:04:28.376Z,19.80
2019-01-21T11:05:28.465Z,19.00
2019-01-21T11:06:28.406Z,20.40
2019-01-21T11:07:28.287Z,19.60
2019-01-21T11:08:28.564Z,20.30
2019-01-21T11:09:28.276Z,21.50
2019-01-21T11:10:28.264Z,20.50
2019-01-21T11:11:28.225Z,20.20
2019-01-21T11:12:28.192Z,20.30
2019-01-21T11:13:28.278Z,20.30
2019-01-21T11:14:28.192Z,20.00
2019-01-21T11:15:28.197Z,21.00
2019-01-21T11:16:28.150Z,21.80
2019-01-21T11:17:28.132Z,20.70
2019-01-21T11:18:28.107Z,21.40
2019-01-21T11:19:28.109Z,22.00
2019-01-21T11:20:28.160Z,21.60
2019-01-21T11:21:28.090Z,22.40
2019-01-21T11:23:38.624Z,20.60
2019-01-21T11:24:39.613Z,21.70
2019-01-21T11:25:39.635Z,22.20
2019-01-21T11:26:41.496Z,23.30
2019-01-21T11:27:39.674Z,21.90
2019-01-21T11:28:40.559Z,21.90
2019-01-21T11:29:39.559Z,23.40
2019-01-21T11:30:39.558Z,23.90
2019-01-21T11:31:39.538Z,23.50
2019-01-21T11:32:39.522Z,23.60
2019-01-21T11:33:39.515Z,24.90
2019-01-21T11:34:39.502Z,23.60
2019-01-21T11:35:39.586Z,23.50
2019-01-21T11:36:39.600Z,24.50
2019-01-21T11:37:39.515Z,24.90
2019-01-21T11:38:39.463Z,25.60
2019-01-21T11:39:39.438Z,25.70
2019-01-21T11:40:39.463Z,26.50
2019-01-21T11:41:39.451Z,25.20
2019-01-21T11:42:39.410Z,24.80
2019-01-21T11:43:39.392Z,23.50
2019-01-21T11:44:39.389Z,25.20
2019-01-21T11:45:39.402Z,24.90
2019-01-21T11:46:39.360Z,24.50
2019-01-21T11:47:39.355Z,25.80
2019-01-21T11:48:39.329Z,25.50
2019-01-21T11:49:39.332Z,25.30
2019-01-21T11:50:39.335Z,25.10
2019-01-21T11:51:41.263Z,24.70
2019-01-21T11:52:39.289Z,26.10
2019-01-21T11:53:39.286Z,25.10
2019-01-21T11:54:39.280Z,24.80
2019-01-21T11:55:39.300Z,25.80
2019-01-21T11:56:39.252Z,24.00
2019-01-21T11:57:39.335Z,25.50
2019-01-21T11:58:39.227Z,25.40
2019-01-21T11:59:39.413Z,24.80
2019-01-21T12:00:39.239Z,26.20
2019-01-21T12:01:39.197Z,26.20
2019-01-21T12:02:39.184Z,26.70
2019-01-21T12:03:39.200Z,26.20
2019-01-21T12:04:39.222Z,27.00
2019-01-21T12:05:39.168Z,27.40
2019-01-21T12:06:39.154Z,26.40
2019-01-21T12:07:39.148Z,26.30
2019-01-21T12:08:39.141Z,25.40
2019-01-21T12:09:39.976Z,26.90
2019-01-21T12:10:39.124Z,26.90
2019-01-21T12:11:39.109Z,27.80
2019-01-21T12:12:39.078Z,27.70
2019-01-21T12:13:39.081Z,28.40
2019-01-21T12:14:39.070Z,26.50
2019-01-21T12:15:39.061Z,27.50
2019-01-21T12:16:39.162Z,27.10
2019-01-21T12:17:39.017Z,27.40
2019-01-21T12:18:39.003Z,26.80
2019-01-21T12:19:39.003Z,27.00
2019-01-21T12:20:38.988Z,27.80
2019-01-21T12:21:39.010Z,27.10
2019-01-21T12:22:38.967Z,28.20
2019-01-21T12:23:38.956Z,27.90
2019-01-21T12:24:38.954Z,26.40
2019-01-21T12:25:38.929Z,27.90
2019-01-21T12:26:38.939Z,27.90
2019-01-21T12:27:38.911Z,27.30
2019-01-21T12:28:38.900Z,27.20
2019-01-21T12:29:38.886Z,27.60
2019-01-21T12:30:38.878Z,27.10
2019-01-21T12:31:38.897Z,26.70
2019-01-21T12:32:38.873Z,25.90
2019-01-21T12:33:38.850Z,26.80
2019-01-21T12:34:38.839Z,25.80
2019-01-21T12:35:38.819Z,25.90
2019-01-21T12:36:38.842Z,25.90
2019-01-21T12:37:38.810Z,26.80
2019-01-21T12:38:38.793Z,26.70
2019-01-21T12:39:38.789Z,26.10
2019-01-21T12:40:38.771Z,26.30
2019-01-21T12:41:38.773Z,25.80
2019-01-21T12:42:38.766Z,26.60
2019-01-21T12:43:38.746Z,25.20
2019-01-21T12:44:38.735Z,26.20
2019-01-21T12:45:38.725Z,25.80
2019-01-21T12:46:39.493Z,26.00
2019-01-21T12:47:38.699Z,25.70
2019-01-21T12:48:38.685Z,25.90
2019-01-21T12:49:38.672Z,26.20
2019-01-21T12:50:38.665Z,25.20
2019-01-21T12:51:38.686Z,25.50
2019-01-21T12:52:38.694Z,25.40
2019-01-21T12:53:38.631Z,25.70
2019-01-21T12:54:38.617Z,24.40
2019-01-21T12:55:38.612Z,24.90
2019-01-21T12:56:38.611Z,25.60
2019-01-21T12:57:38.594Z,25.30
2019-01-21T12:58:39.593Z,27.00
2019-01-21T12:59:38.559Z,24.90